• Join FlightAware (Why Join?)
  • Login
  • US Flag 
09:43AM EDT


 

Airport Tracker/Info


-or-


 

Live Flight TrackerFlight Track Log ✈ LYM515 ✈ 04-May-2013 ✈ KLAA - KDDC

Flight Track Log - Related Links

Times and Time Zones

All times are in EDT time to prevent confusion due to time zone crossing. See the LYM515 flight status page for this flight to view local times or setup timezone preferences in your user account.

Time Position Orientation Groundspeed Altitude Reporting Facility
EDT Latitude Longitude Course Direction KTS MPH feet Rate Location/Type
09:48AM 38.0242 -102.5578 96° East 196 226 8,000  Level Denver Center
09:49AM 38.0125 -102.4917 103° East 188 216 9,300 1,080 Climbing Denver Center
09:50AM 38.0078 -102.4289 95° East 198 228 10,200 780 Climbing Denver Center
09:51AM 37.9992 -102.3461 97° East 209 241 10,900 780 Climbing Denver Center
09:52AM 38.0316 -102.2792 96° East  Level FlightAware Approximate
09:52AM 37.9919 -102.2739 97° East 216 249 11,800  Level Denver Center
09:53AM 38.0249 -102.1982 96° East  Level FlightAware Approximate
09:53AM 37.9861 -102.1997 96° East 219 252 12,500  Level Denver Center
09:54AM 37.9706 -102.1092 102° East 233 268 12,900 240 Climbing Denver Center
09:55AM 37.9567 -102.0264 102° East 248 285 13,000  Climbing Denver Center
09:56AM 37.9461 -101.9244 97° East 260 299 13,000 -60 Level Denver Center
09:57AM 37.9397 -101.8361 95° East 262 302 12,900 -60 Descending Denver Center
09:58AM 37.9211 -101.7489 105° East 266 306 12,900  Level Denver Center
09:59AM 37.9131 -101.6467 96° East 260 299 12,900  Level Denver Center
10:00AM 37.9081 -101.5575 94° East 263 303 12,900  Level Denver Center
10:01AM 37.8981 -101.4686 98° East 266 306 12,900  Level Denver Center
10:02AM 37.8850 -101.3672 99° East 264 304 13,000  Climbing Denver Center
10:03AM 37.8744 -101.2803 99° East 262 302 13,000 -60 Level Denver Center
10:04AM 37.8686 -101.1917 95° East 262 302 12,900 -60 Descending Denver Center
10:05AM 37.8503 -101.0875 103° East 274 315 12,900  Level Denver Center
10:06AM 37.8458 -101.0000 94° East 266 306 12,900 -480 Level Denver Center
10:07AM 37.8444 -100.9103 91° East 263 303 12,000 -1,380 Descending Denver Center
10:08AM 37.8381 -100.7906 94° East 293 337 10,100 -1,920 Descending Denver Center